Terminal Aerodrome Forecast
Issued by NWS

Home | Current Version | Previous Version | Text Only | Print | Product List | Glossary On
Versions: 1 2 3 4 5 6 7 8 9 10 11 12
000
FTUS42 KTAE 222323
TAFVLD
TAF
KVLD 222323Z 2300/2324 VRB03KT P6SM SCT250
     FM231000 00000KT 6SM BR SCT005
     FM231300 20004KT P6SM FEW025
     FM231800 20007KT 6SM -TSRA BKN050CB=

USA.gov is the U.S. government's official web portal to all federal, state and local government web resources and services.